createdAt,value
2019-02-26T00:02:17.305Z,98887.50
2019-02-26T00:07:23.493Z,98879.27
2019-02-26T00:12:26.278Z,98876.55
2019-02-26T00:17:27.700Z,98875.99
2019-02-26T00:22:29.983Z,98869.08
2019-02-26T00:27:35.026Z,98861.84
2019-02-26T00:32:38.362Z,98844.59
2019-02-26T00:37:40.624Z,98815.36
2019-02-26T00:42:42.213Z,98807.45
2019-02-26T00:47:46.152Z,98810.92
2019-02-26T00:52:47.223Z,98801.86
2019-02-26T00:57:48.781Z,98798.59
2019-02-26T01:02:50.343Z,98795.27
2019-02-26T01:07:54.220Z,98784.77
2019-02-26T01:12:56.483Z,98779.66
2019-02-26T01:18:01.439Z,98755.62
2019-02-26T01:23:03.751Z,98757.14
2019-02-26T01:28:05.299Z,98762.38
2019-02-26T01:33:08.057Z,98767.56
2019-02-26T01:38:12.065Z,98774.23
2019-02-26T01:43:14.028Z,98775.79
2019-02-26T01:48:18.392Z,98752.06
2019-02-26T01:53:19.809Z,98769.99
2019-02-26T01:58:22.541Z,98761.37
2019-02-26T02:03:25.516Z,98747.27
2019-02-26T02:08:27.589Z,98731.22
2019-02-26T02:13:30.581Z,98726.34
2019-02-26T02:18:32.731Z,98699.98
2019-02-26T02:23:34.341Z,98704.70
2019-02-26T02:28:35.880Z,98689.45
2019-02-26T02:33:37.647Z,98685.17
2019-02-26T02:38:39.400Z,98675.16
2019-02-26T02:43:40.945Z,98679.98
2019-02-26T02:48:42.487Z,98681.83
2019-02-26T02:53:45.241Z,98681.47
2019-02-26T02:58:49.487Z,98677.56
2019-02-26T03:03:53.125Z,98680.20
2019-02-26T03:08:54.467Z,98682.16
2019-02-26T03:13:56.096Z,98672.70
2019-02-26T03:18:57.662Z,98670.75
2019-02-26T03:24:02.841Z,98666.09
2019-02-26T03:29:03.725Z,98665.38
2019-02-26T03:34:10.571Z,98654.24
2019-02-26T03:39:08.829Z,98652.22
2019-02-26T03:44:10.495Z,98632.06
2019-02-26T03:49:12.107Z,98626.40
2019-02-26T03:54:13.659Z,98622.09
2019-02-26T03:59:15.214Z,98623.72
2019-02-26T04:04:16.752Z,98638.44
2019-02-26T04:09:19.618Z,98634.85
2019-02-26T04:14:22.914Z,98635.41
2019-02-26T04:19:26.854Z,98638.20
2019-02-26T04:24:29.897Z,98627.44
2019-02-26T04:29:36.093Z,98613.70
2019-02-26T04:34:43.942Z,98610.67
2019-02-26T04:40:05.389Z,98598.30
2019-02-26T04:45:26.484Z,98598.46
2019-02-26T04:50:29.571Z,98605.20
2019-02-26T04:55:35.346Z,98606.83
2019-02-26T05:00:36.571Z,98594.19
2019-02-26T05:05:38.832Z,98607.27
2019-02-26T05:10:40.384Z,98609.55
2019-02-26T05:15:43.469Z,98612.54
2019-02-26T05:20:48.511Z,98625.62
2019-02-26T05:25:48.877Z,98614.81
2019-02-26T05:30:51.395Z,98620.00
2019-02-26T05:35:52.971Z,98619.44
2019-02-26T05:40:55.798Z,98610.62
2019-02-26T05:46:00.609Z,98617.35
2019-02-26T05:51:03.605Z,98615.42
2019-02-26T05:56:05.603Z,98611.87
2019-02-26T06:01:07.160Z,98625.11
2019-02-26T06:06:08.719Z,98615.49
2019-02-26T06:11:10.411Z,98612.02
2019-02-26T06:16:12.028Z,98624.02
2019-02-26T06:21:15.797Z,98637.03
2019-02-26T06:26:17.854Z,98645.64
2019-02-26T06:31:21.947Z,98650.39
2019-02-26T06:36:25.880Z,98640.12
2019-02-26T06:41:41.561Z,98633.77
2019-02-26T06:46:43.059Z,98641.31
2019-02-26T06:51:45.165Z,98663.55
2019-02-26T06:56:49.099Z,98662.15
2019-02-26T07:01:55.560Z,98665.94
2019-02-26T07:06:57.186Z,98655.47
2019-02-26T07:11:58.504Z,98651.16
2019-02-26T07:17:00.122Z,98639.52
2019-02-26T07:22:01.679Z,98626.34
2019-02-26T07:27:04.298Z,98638.73
2019-02-26T07:32:06.833Z,98646.87
2019-02-26T07:37:09.340Z,98642.91
2019-02-26T07:42:14.006Z,98647.80
2019-02-26T07:47:15.350Z,98642.91
2019-02-26T07:52:16.907Z,98640.14
2019-02-26T07:57:20.589Z,98636.80
2019-02-26T08:02:21.944Z,98632.09
2019-02-26T08:07:24.384Z,98648.42
2019-02-26T08:12:27.025Z,98638.36
2019-02-26T08:17:28.655Z,98634.80
2019-02-26T08:22:32.355Z,98664.72
2019-02-26T08:27:35.557Z,98658.44
2019-02-26T08:32:39.140Z,98663.16
2019-02-26T08:37:40.971Z,98666.02
2019-02-26T08:42:43.531Z,98655.11
2019-02-26T08:47:45.095Z,98639.57
2019-02-26T08:52:49.920Z,98638.20
2019-02-26T08:57:51.988Z,98636.66
2019-02-26T09:02:56.445Z,98643.61
2019-02-26T09:07:57.349Z,98651.75
2019-02-26T09:12:58.935Z,98640.05
2019-02-26T09:18:00.548Z,98652.68
2019-02-26T09:23:02.213Z,98646.98
2019-02-26T09:28:03.876Z,98641.17
2019-02-26T09:33:06.357Z,98640.27
2019-02-26T09:38:09.038Z,98637.70
2019-02-26T09:43:12.902Z,98623.70
2019-02-26T09:48:16.596Z,98622.19
2019-02-26T09:53:17.983Z,98623.53
2019-02-26T09:58:21.048Z,98607.75
2019-02-26T10:03:23.072Z,98609.20
2019-02-26T10:08:25.397Z,98615.28
2019-02-26T10:13:28.290Z,98605.09
2019-02-26T10:18:32.804Z,98598.23
2019-02-26T10:23:34.359Z,98607.55
2019-02-26T10:28:39.421Z,98594.58
2019-02-26T10:33:41.160Z,98601.97
2019-02-26T10:38:42.859Z,98607.14
2019-02-26T10:43:44.735Z,98610.39
2019-02-26T10:48:47.966Z,98606.08
2019-02-26T10:53:49.801Z,98604.95
2019-02-26T10:58:54.735Z,98586.84
2019-02-26T11:03:55.243Z,98588.48
2019-02-26T11:09:01.064Z,98597.97
2019-02-26T11:14:02.728Z,98585.95
2019-02-26T11:19:07.526Z,98593.00
2019-02-26T11:24:11.117Z,98589.97
2019-02-26T11:29:12.499Z,98583.05
2019-02-26T11:34:14.044Z,98591.19
2019-02-26T11:39:16.538Z,98593.88
2019-02-26T11:44:20.571Z,98594.12
2019-02-26T11:49:21.951Z,98588.30
2019-02-26T11:54:23.520Z,98593.59
2019-02-26T11:59:25.071Z,98602.94
2019-02-26T12:04:26.743Z,98609.98
2019-02-26T12:09:32.410Z,98606.40
2019-02-26T12:14:34.699Z,98599.52
2019-02-26T12:19:37.186Z,98592.23
2019-02-26T12:24:38.882Z,98579.06
2019-02-26T12:29:42.674Z,98583.77
2019-02-26T12:34:45.416Z,98583.11
2019-02-26T12:39:49.931Z,98590.63
2019-02-26T12:44:50.896Z,98577.83
2019-02-26T12:49:52.485Z,98582.58
2019-02-26T12:54:55.012Z,98580.16
2019-02-26T12:59:57.476Z,98579.38
2019-02-26T13:04:59.034Z,98552.18
2019-02-26T13:10:03.609Z,98550.78
2019-02-26T13:15:19.014Z,98537.27
2019-02-26T13:20:25.518Z,98541.83
2019-02-26T13:25:27.192Z,98551.22
2019-02-26T13:30:28.861Z,98534.62
2019-02-26T13:35:30.417Z,98540.69
2019-02-26T13:40:38.230Z,98522.79
2019-02-26T13:45:35.925Z,98524.91
2019-02-26T13:50:39.108Z,98528.16
2019-02-26T13:55:40.924Z,98524.78
2019-02-26T14:00:42.576Z,98512.41
2019-02-26T14:05:44.340Z,98510.91
2019-02-26T14:10:46.000Z,98498.04
2019-02-26T14:15:47.755Z,98495.69
2019-02-26T14:20:49.448Z,98500.83
2019-02-26T14:25:51.039Z,98492.31
2019-02-26T14:30:52.599Z,98488.09
2019-02-26T14:35:54.184Z,98486.25
2019-02-26T14:40:55.752Z,98480.42
2019-02-26T14:45:57.308Z,98488.00
2019-02-26T14:50:59.872Z,98488.54
2019-02-26T14:56:01.477Z,98486.35
2019-02-26T15:01:03.995Z,98485.24
2019-02-26T15:06:05.798Z,98495.09
2019-02-26T15:11:07.493Z,98504.70
2019-02-26T15:16:09.088Z,98507.66
2019-02-26T15:21:10.763Z,98505.06
2019-02-26T15:26:12.363Z,98513.62
2019-02-26T15:31:14.144Z,98505.08
2019-02-26T15:36:15.705Z,98511.27
2019-02-26T15:41:17.384Z,98536.63
2019-02-26T15:46:20.569Z,98538.11
2019-02-26T15:51:23.528Z,98529.28
2019-02-26T15:56:29.563Z,98527.16
2019-02-26T16:01:29.967Z,98538.30
2019-02-26T16:06:31.687Z,98540.31
2019-02-26T16:11:34.642Z,98528.25
2019-02-26T16:16:37.625Z,98529.20
2019-02-26T16:21:39.598Z,98540.36
2019-02-26T16:26:43.064Z,98556.17
2019-02-26T16:31:45.624Z,98558.70
2019-02-26T16:36:49.551Z,98562.29
2019-02-26T16:41:51.135Z,98567.58
2019-02-26T16:46:52.952Z,98563.42
2019-02-26T16:51:56.793Z,98575.67
2019-02-26T16:56:58.671Z,98593.69
2019-02-26T17:02:01.912Z,98600.94
2019-02-26T17:07:04.214Z,98603.77
2019-02-26T17:12:06.122Z,98605.09
2019-02-26T17:17:10.166Z,98625.09
2019-02-26T17:22:11.868Z,98618.64
2019-02-26T17:27:14.998Z,98625.44
2019-02-26T17:32:17.728Z,98630.81
2019-02-26T17:37:21.288Z,98631.64
2019-02-26T17:42:23.731Z,98635.58
2019-02-26T17:47:25.605Z,98635.80
2019-02-26T17:52:29.271Z,98643.16
2019-02-26T17:57:34.634Z,98635.09
2019-02-26T18:02:35.560Z,98632.64
2019-02-26T18:07:38.589Z,98646.73
2019-02-26T18:12:42.667Z,98641.86
2019-02-26T18:17:45.147Z,98647.94
2019-02-26T18:22:46.883Z,98656.42
2019-02-26T18:27:49.885Z,98665.02
2019-02-26T18:32:57.426Z,98670.77
2019-02-26T18:37:56.824Z,98678.32
2019-02-26T18:42:58.524Z,98674.98
2019-02-26T18:48:00.380Z,98684.33
2019-02-26T18:53:05.276Z,98693.33
2019-02-26T18:58:07.071Z,98694.38
2019-02-26T19:03:09.519Z,98699.74
2019-02-26T19:08:11.293Z,98708.61
2019-02-26T19:13:12.928Z,98717.12
2019-02-26T19:18:14.672Z,98716.98
2019-02-26T19:23:16.560Z,98727.73
2019-02-26T19:28:18.471Z,98726.74
2019-02-26T19:33:21.742Z,98735.78
2019-02-26T19:38:27.249Z,98726.95
2019-02-26T19:43:28.832Z,98713.55
2019-02-26T19:48:32.201Z,98717.09
2019-02-26T19:53:35.183Z,98718.70
2019-02-26T19:58:40.616Z,98716.23
2019-02-26T20:03:40.915Z,98715.44
2019-02-26T20:08:42.562Z,98714.27
2019-02-26T20:13:44.158Z,98707.45
2019-02-26T20:18:45.724Z,98701.94
2019-02-26T20:23:47.394Z,98707.45
2019-02-26T20:28:48.945Z,98699.91
2019-02-26T20:33:50.503Z,98706.01
2019-02-26T20:38:52.059Z,98704.20
2019-02-26T20:43:53.621Z,98698.56
2019-02-26T20:48:55.172Z,98703.74
2019-02-26T20:53:56.768Z,98703.77
2019-02-26T20:58:58.330Z,98704.87
2019-02-26T21:03:59.925Z,98708.03
2019-02-26T21:09:06.561Z,98709.39
2019-02-26T21:14:07.868Z,98709.53
2019-02-26T21:19:10.842Z,98708.08
2019-02-26T21:24:14.467Z,98718.16
2019-02-26T21:29:17.925Z,98715.64
2019-02-26T21:34:21.427Z,98718.48
2019-02-26T21:39:24.881Z,98728.59
2019-02-26T21:44:28.331Z,98735.45
2019-02-26T21:49:31.800Z,98729.98
2019-02-26T21:54:35.256Z,98727.20
2019-02-26T21:59:38.752Z,98740.29
2019-02-26T22:04:42.199Z,98750.53
2019-02-26T22:09:43.862Z,98752.35
2019-02-26T22:14:45.760Z,98746.90
2019-02-26T22:19:47.516Z,98750.37
2019-02-26T22:24:49.158Z,98747.81
2019-02-26T22:29:50.708Z,98740.47
2019-02-26T22:34:53.585Z,98742.83
2019-02-26T22:39:58.633Z,98748.58
2019-02-26T22:45:00.229Z,98750.87
2019-02-26T22:50:03.194Z,98750.20
2019-02-26T22:55:08.751Z,98744.74
2019-02-26T23:00:49.827Z,98737.34
2019-02-26T23:05:53.381Z,98732.08
2019-02-26T23:10:57.513Z,98737.91
2019-02-26T23:15:59.959Z,98732.95
2019-02-26T23:21:01.808Z,98739.38
2019-02-26T23:26:04.139Z,98742.29
2019-02-26T23:31:06.903Z,98741.73
2019-02-26T23:36:08.896Z,98727.50
2019-02-26T23:41:10.448Z,98739.30
2019-02-26T23:46:12.303Z,98747.88
2019-02-26T23:51:13.888Z,98753.59
2019-02-26T23:56:16.781Z,98756.31
